Time;durP1;ratioP1;P1;durP2;ratioP2;P2;SDS_P1;SDS_P2;PMS_P1;PMS_P2;Temp;Humidity;BMP_temperature;BMP_pressure;BME280_temperature;BME280_humidity;BME280_pressure;Samples;Min_cycle;Max_cycle;Signal;HPM_P1;HPM_P2
2023/04/03 00:01:04;;;;;;;;;;;;;;;;;;5052668;28;19908;-45
2023/04/03 00:03:31;;;;;;;;;;;;;;;;;;5050245;28;19919;-45
2023/04/03 00:05:57;;;;;;;;;;;;;;;;;;5052424;28;20366;-45
2023/04/03 00:08:24;;;;;;;;;;;;;;;;;;5052452;28;19924;-47
2023/04/03 00:10:50;;;;;;;;;;;;;;;;;;5052782;28;19991;-47
2023/04/03 00:13:17;;;;;;;;;;;;;;;;;;5052529;28;20381;-48
2023/04/03 00:15:43;;;;;;;;;;;;;;;;;;5052324;28;19974;-46
2023/04/03 00:18:09;;;;;;;;;;;;;;;;;;5051966;28;19932;-45
2023/04/03 00:20:36;;;;;;;;;;;;;;;;;;5052568;28;19908;-48
2023/04/03 00:23:13;;;;;;;;;;;;;;;;;;5091633;27;19927;-43
2023/04/03 00:25:39;;;;;;;;;;;;;;;;;;5089373;28;19917;-42
2023/04/03 00:28:06;;;;;;;;;;;;;;;;;;5089361;28;19916;-42
2023/04/03 00:30:32;;;;;;;;;;;;;;;;;;5088997;28;19978;-44
2023/04/03 00:32:58;;;;;;;;;;;;;;;;;;5089132;28;19916;-43
2023/04/03 00:35:25;;;;;;;;;;;;;;;;;;5088979;28;19916;-42
2023/04/03 00:37:51;;;;;;;;;;;;;;;;;;5088784;28;20020;-44
2023/04/03 00:40:18;;;;;;;;;;;;;;;;;;5079418;28;19913;-42
2023/04/03 00:42:44;;;;;;;;;;;;;;;;;;5072255;28;19997;-44
2023/04/03 00:45:11;;;;;;;;;;;;;;;;;;5081281;28;19917;-43
2023/04/03 00:47:37;;;;;;;;;;;;;;;;;;5079101;28;20011;-42
2023/04/03 00:50:04;;;;;;;;;;;;;;;;;;5080635;28;20351;-46
2023/04/03 00:52:30;;;;;;;;;;;;;;;;;;5109644;28;20135;-43
2023/04/03 00:54:57;;;;;;;;;;;;;;;;;;5074783;28;19959;-44
2023/04/03 00:57:23;;;;;;;;;;;;;;;;;;5086992;28;19913;-43
2023/04/03 00:59:49;;;;;;;;;;;;;;;;;;5086959;28;19951;-42
2023/04/03 01:02:16;;;;;;;;;;;;;;;;;;5087492;28;19928;-42
2023/04/03 01:04:42;;;;;;;;;;;;;;;;;;5087410;28;19970;-42
2023/04/03 01:07:09;;;;;;;;;;;;;;;;;;5088428;28;20003;-42
2023/04/03 01:09:35;;;;;;;;;;;;;;;;;;5088665;28;19917;-42
2023/04/03 01:12:02;;;;;;;;;;;;;;;;;;5088519;28;19920;-43
2023/04/03 01:14:28;;;;;;;;;;;;;;;;;;5087742;28;19916;-44
2023/04/03 01:16:55;;;;;;;;;;;;;;;;;;5088671;28;20385;-43
2023/04/03 01:19:21;;;;;;;;;;;;;;;;;;5088347;28;19961;-42
2023/04/03 01:21:47;;;;;;;;;;;;;;;;;;5088044;28;20397;-43
2023/04/03 01:24:14;;;;;;;;;;;;;;;;;;5088237;28;19916;-44
2023/04/03 01:26:40;;;;;;;;;;;;;;;;;;5088476;28;19974;-44
2023/04/03 01:29:07;;;;;;;;;;;;;;;;;;5088379;28;19952;-43
2023/04/03 01:31:33;;;;;;;;;;;;;;;;;;5088027;28;19975;-44
2023/04/03 01:34:00;;;;;;;;;;;;;;;;;;5077598;28;19913;-43
2023/04/03 01:36:26;;;;;;;;;;;;;;;;;;5074799;28;19916;-42
2023/04/03 01:38:53;;;;;;;;;;;;;;;;;;5074692;28;19912;-42
2023/04/03 01:41:20;;;;;;;;;;;;;;;;;;5074555;28;19951;-44
2023/04/03 01:43:47;;;;;;;;;;;;;;;;;;5074175;28;19923;-42
2023/04/03 01:46:13;;;;;;;;;;;;;;;;;;5074572;28;19912;-42
2023/04/03 01:48:40;;;;;;;;;;;;;;;;;;5074549;28;19931;-42
2023/04/03 01:51:06;;;;;;;;;;;;;;;;;;5074415;28;19948;-43
2023/04/03 01:53:32;;;;;;;;;;;;;;;;;;5067372;28;19916;-42
2023/04/03 01:55:59;;;;;;;;;;;;;;;;;;5059935;28;19927;-42
2023/04/03 01:58:25;;;;;;;;;;;;;;;;;;5054178;28;19920;-44
2023/04/03 02:00:52;;;;;;;;;;;;;;;;;;5054074;28;20039;-43
2023/04/03 02:03:18;;;;;;;;;;;;;;;;;;5054085;28;19913;-42
2023/04/03 02:05:45;;;;;;;;;;;;;;;;;;5054046;28;19999;-44
2023/04/03 02:08:11;;;;;;;;;;;;;;;;;;5054123;28;19913;-44
2023/04/03 02:10:37;;;;;;;;;;;;;;;;;;5053835;28;20366;-42
2023/04/03 02:13:04;;;;;;;;;;;;;;;;;;5086153;28;19920;-43
2023/04/03 02:15:31;;;;;;;;;;;;;;;;;;5054006;28;19917;-43
2023/04/03 02:17:57;;;;;;;;;;;;;;;;;;5053974;28;19917;-42
2023/04/03 02:20:24;;;;;;;;;;;;;;;;;;5053618;28;20294;-42
2023/04/03 02:22:50;;;;;;;;;;;;;;;;;;5053709;28;19924;-42
2023/04/03 02:25:17;;;;;;;;;;;;;;;;;;5053722;28;20374;-42
2023/04/03 02:27:44;;;;;;;;;;;;;;;;;;5053833;28;19913;-43
2023/04/03 02:30:10;;;;;;;;;;;;;;;;;;5053837;28;19967;-42
2023/04/03 02:32:37;;;;;;;;;;;;;;;;;;5053687;28;19924;-43
2023/04/03 02:35:03;;;;;;;;;;;;;;;;;;5053665;28;19959;-42
2023/04/03 02:37:29;;;;;;;;;;;;;;;;;;5053658;28;19939;-42
2023/04/03 02:39:56;;;;;;;;;;;;;;;;;;5068649;28;19912;-43
2023/04/03 02:42:22;;;;;;;;;;;;;;;;;;5073546;28;19928;-44
2023/04/03 02:44:49;;;;;;;;;;;;;;;;;;5072463;28;19999;-43
2023/04/03 02:47:15;;;;;;;;;;;;;;;;;;5073505;28;19963;-42
2023/04/03 02:49:44;;;;;;;;;;;;;;;;;;5073426;28;20011;-42
2023/04/03 02:52:11;;;;;;;;;;;;;;;;;;5073297;28;20362;-42
2023/04/03 02:54:37;;;;;;;;;;;;;;;;;;5073269;28;19924;-42
2023/04/03 02:57:04;;;;;;;;;;;;;;;;;;5073251;28;20000;-43
2023/04/03 02:59:30;;;;;;;;;;;;;;;;;;5073143;28;19913;-42
2023/04/03 03:01:56;;;;;;;;;;;;;;;;;;5073095;28;20022;-42
2023/04/03 03:04:23;;;;;;;;;;;;;;;;;;5073070;28;19920;-42
2023/04/03 03:06:49;;;;;;;;;;;;;;;;;;5073080;28;19987;-43
2023/04/03 03:09:15;;;;;;;;;;;;;;;;;;5072915;28;19956;-43
2023/04/03 03:11:42;;;;;;;;;;;;;;;;;;5072964;28;20397;-43
2023/04/03 03:14:08;;;;;;;;;;;;;;;;;;5072822;28;20302;-44
2023/04/03 03:16:34;;;;;;;;;;;;;;;;;;5064523;28;19923;-42
2023/04/03 03:19:01;;;;;;;;;;;;;;;;;;5052878;28;19917;-43
2023/04/03 03:21:27;;;;;;;;;;;;;;;;;;5052450;28;20371;-43
2023/04/03 03:23:54;;;;;;;;;;;;;;;;;;5052652;28;20404;-42
2023/04/03 03:26:20;;;;;;;;;;;;;;;;;;5067922;28;19913;-42
2023/04/03 03:28:47;;;;;;;;;;;;;;;;;;5052615;28;19913;-42
2023/04/03 03:31:15;;;;;;;;;;;;;;;;;;5052654;28;19920;-42
2023/04/03 03:33:41;;;;;;;;;;;;;;;;;;5052469;28;19917;-42
2023/04/03 03:36:07;;;;;;;;;;;;;;;;;;5052481;28;20341;-42
2023/04/03 03:38:34;;;;;;;;;;;;;;;;;;5052483;28;19924;-42
2023/04/03 03:41:01;;;;;;;;;;;;;;;;;;5052409;28;19913;-42
2023/04/03 03:43:27;;;;;;;;;;;;;;;;;;5052297;28;19927;-43
2023/04/03 03:45:53;;;;;;;;;;;;;;;;;;5052391;28;19912;-42
2023/04/03 03:48:20;;;;;;;;;;;;;;;;;;5052397;28;19920;-42
2023/04/03 03:50:47;;;;;;;;;;;;;;;;;;5052298;28;20005;-44
2023/04/03 03:53:13;;;;;;;;;;;;;;;;;;5052130;28;19958;-42
2023/04/03 03:55:40;;;;;;;;;;;;;;;;;;5052054;28;19912;-42
2023/04/03 03:58:06;;;;;;;;;;;;;;;;;;5052281;28;20374;-42
2023/04/03 04:00:33;;;;;;;;;;;;;;;;;;5052233;28;19921;-44
2023/04/03 04:03:00;;;;;;;;;;;;;;;;;;5051960;28;20286;-41
2023/04/03 04:05:26;;;;;;;;;;;;;;;;;;5052205;28;19939;-42
2023/04/03 04:07:53;;;;;;;;;;;;;;;;;;5052049;28;19909;-42
2023/04/03 04:10:20;;;;;;;;;;;;;;;;;;5051994;28;19920;-42
2023/04/03 04:12:46;;;;;;;;;;;;;;;;;;5052091;28;19997;-42
2023/04/03 04:15:12;;;;;;;;;;;;;;;;;;5051868;28;19928;-42
2023/04/03 04:17:39;;;;;;;;;;;;;;;;;;5052001;28;19913;-42
2023/04/03 04:20:05;;;;;;;;;;;;;;;;;;5052103;28;20032;-43
2023/04/03 04:22:32;;;;;;;;;;;;;;;;;;5051715;28;19932;-42
2023/04/03 04:24:58;;;;;;;;;;;;;;;;;;5067384;28;20421;-42
2023/04/03 04:27:24;;;;;;;;;;;;;;;;;;5051965;28;19919;-43
2023/04/03 04:29:51;;;;;;;;;;;;;;;;;;5051940;28;19917;-42
2023/04/03 04:32:17;;;;;;;;;;;;;;;;;;5051857;28;20263;-42
2023/04/03 04:34:44;;;;;;;;;;;;;;;;;;5051816;28;19996;-44
2023/04/03 04:37:10;;;;;;;;;;;;;;;;;;5051868;28;19943;-42
2023/04/03 04:39:37;;;;;;;;;;;;;;;;;;5051774;28;20404;-42
2023/04/03 04:42:03;;;;;;;;;;;;;;;;;;5051704;28;19925;-42
2023/04/03 04:44:30;;;;;;;;;;;;;;;;;;5051679;28;19913;-42
2023/04/03 04:46:56;;;;;;;;;;;;;;;;;;5051756;28;19915;-42
2023/04/03 04:49:22;;;;;;;;;;;;;;;;;;5051745;28;20018;-42
2023/04/03 04:51:49;;;;;;;;;;;;;;;;;;5051711;28;20405;-42
2023/04/03 04:54:15;;;;;;;;;;;;;;;;;;5051592;28;19917;-41
2023/04/03 04:56:42;;;;;;;;;;;;;;;;;;5051547;28;19917;-42
2023/04/03 04:59:08;;;;;;;;;;;;;;;;;;5051681;28;20000;-42
2023/04/03 05:01:35;;;;;;;;;;;;;;;;;;5051542;28;19956;-42
2023/04/03 05:04:01;;;;;;;;;;;;;;;;;;5051538;28;19928;-43
2023/04/03 05:06:29;;;;;;;;;;;;;;;;;;5051582;28;19913;-43
2023/04/03 05:08:56;;;;;;;;;;;;;;;;;;5053472;28;20358;-42
2023/04/03 05:11:22;;;;;;;;;;;;;;;;;;5055403;28;19927;-42
2023/04/03 05:13:49;;;;;;;;;;;;;;;;;;5055184;28;19913;-42
2023/04/03 05:16:15;;;;;;;;;;;;;;;;;;5055237;28;20285;-42
2023/04/03 05:18:42;;;;;;;;;;;;;;;;;;5055220;28;20131;-42
2023/04/03 05:21:08;;;;;;;;;;;;;;;;;;5054886;28;19974;-42
2023/04/03 05:23:35;;;;;;;;;;;;;;;;;;5055024;28;20004;-42
2023/04/03 05:26:01;;;;;;;;;;;;;;;;;;5055077;28;20007;-43
2023/04/03 05:28:27;;;;;;;;;;;;;;;;;;5055030;28;19923;-42
2023/04/03 05:30:55;;;;;;;;;;;;;;;;;;5054917;28;19999;-42
2023/04/03 05:33:21;;;;;;;;;;;;;;;;;;5054710;28;20370;-42
2023/04/03 05:35:47;;;;;;;;;;;;;;;;;;5054829;28;19917;-42
2023/04/03 05:38:14;;;;;;;;;;;;;;;;;;5054750;28;20583;-42
2023/04/03 05:40:41;;;;;;;;;;;;;;;;;;5054752;28;19913;-42
2023/04/03 05:43:07;;;;;;;;;;;;;;;;;;5054537;28;19917;-42
2023/04/03 05:45:33;;;;;;;;;;;;;;;;;;5054671;28;19917;-42
2023/04/03 05:48:00;;;;;;;;;;;;;;;;;;5054620;28;19912;-41
2023/04/03 05:50:26;;;;;;;;;;;;;;;;;;5054542;28;20372;-42
2023/04/03 05:52:53;;;;;;;;;;;;;;;;;;5054502;28;19916;-41
2023/04/03 05:55:19;;;;;;;;;;;;;;;;;;5054458;28;20004;-41
2023/04/03 05:57:46;;;;;;;;;;;;;;;;;;5054472;28;19913;-41
2023/04/03 06:00:12;;;;;;;;;;;;;;;;;;5054447;28;19923;-41
2023/04/03 06:02:38;;;;;;;;;;;;;;;;;;5068397;28;19916;-41
2023/04/03 06:05:05;;;;;;;;;;;;;;;;;;5074235;28;20370;-42
2023/04/03 06:07:31;;;;;;;;;;;;;;;;;;5074270;28;20480;-41
2023/04/03 06:09:58;;;;;;;;;;;;;;;;;;5074177;28;19920;-42
2023/04/03 06:12:24;;;;;;;;;;;;;;;;;;5074220;28;20381;-41
2023/04/03 06:14:51;;;;;;;;;;;;;;;;;;5073945;28;20298;-42
2023/04/03 06:17:17;;;;;;;;;;;;;;;;;;5074141;28;19912;-44
2023/04/03 06:19:44;;;;;;;;;;;;;;;;;;5073920;28;19943;-43
2023/04/03 06:22:11;;;;;;;;;;;;;;;;;;5073712;28;19927;-42
2023/04/03 06:24:38;;;;;;;;;;;;;;;;;;5073789;28;19912;-42
2023/04/03 06:27:04;;;;;;;;;;;;;;;;;;5073749;28;20382;-42
2023/04/03 06:29:30;;;;;;;;;;;;;;;;;;5073648;28;20289;-42
2023/04/03 06:31:57;;;;;;;;;;;;;;;;;;5073811;28;19927;-42
2023/04/03 06:34:23;;;;;;;;;;;;;;;;;;5073699;28;19956;-43
2023/04/03 06:36:50;;;;;;;;;;;;;;;;;;5073780;28;19917;-41
2023/04/03 06:39:16;;;;;;;;;;;;;;;;;;5073670;28;19912;-42
2023/04/03 06:41:43;;;;;;;;;;;;;;;;;;5072199;28;20344;-43
2023/04/03 06:44:11;;;;;;;;;;;;;;;;;;5073458;28;19939;-41
2023/04/03 06:46:37;;;;;;;;;;;;;;;;;;5073517;28;19908;-42
2023/04/03 06:49:04;;;;;;;;;;;;;;;;;;5073441;28;19916;-42
2023/04/03 06:51:30;;;;;;;;;;;;;;;;;;5073342;28;20305;-42
2023/04/03 06:53:56;;;;;;;;;;;;;;;;;;5072051;28;19912;-42
2023/04/03 06:56:23;;;;;;;;;;;;;;;;;;5073392;28;19991;-41
2023/04/03 06:58:50;;;;;;;;;;;;;;;;;;5073336;28;19981;-41
2023/04/03 07:01:18;;;;;;;;;;;;;;;;;;5073232;28;19921;-41
2023/04/03 07:03:46;;;;;;;;;;;;;;;;;;5073072;28;19923;-41
2023/04/03 07:06:12;;;;;;;;;;;;;;;;;;5073168;28;19920;-42
2023/04/03 07:08:39;;;;;;;;;;;;;;;;;;5073066;28;19912;-41
2023/04/03 07:11:05;;;;;;;;;;;;;;;;;;5072986;28;19942;-43
2023/04/03 07:13:32;;;;;;;;;;;;;;;;;;5072878;28;20373;-42
2023/04/03 07:15:58;;;;;;;;;;;;;;;;;;5072877;28;20011;-43
2023/04/03 07:18:25;;;;;;;;;;;;;;;;;;5072933;28;19952;-42
2023/04/03 07:20:51;;;;;;;;;;;;;;;;;;5072623;28;20013;-42
2023/04/03 07:23:18;;;;;;;;;;;;;;;;;;5072694;28;19925;-41
2023/04/03 07:25:44;;;;;;;;;;;;;;;;;;5072757;28;19947;-41
2023/04/03 07:28:11;;;;;;;;;;;;;;;;;;5072821;28;19917;-42
2023/04/03 07:30:37;;;;;;;;;;;;;;;;;;5072153;28;19938;-42
2023/04/03 07:33:04;;;;;;;;;;;;;;;;;;5072594;28;19917;-41
2023/04/03 07:35:31;;;;;;;;;;;;;;;;;;5072566;28;19995;-42
2023/04/03 07:37:57;;;;;;;;;;;;;;;;;;5072590;28;19924;-41
2023/04/03 07:40:24;;;;;;;;;;;;;;;;;;5072737;28;20348;-41
2023/04/03 07:42:50;;;;;;;;;;;;;;;;;;5072348;28;19930;-41
2023/04/03 07:45:17;;;;;;;;;;;;;;;;;;5071030;28;19917;-42
2023/04/03 07:47:43;;;;;;;;;;;;;;;;;;5072332;28;19924;-41
2023/04/03 07:50:10;;;;;;;;;;;;;;;;;;5072403;28;19979;-41
2023/04/03 07:52:36;;;;;;;;;;;;;;;;;;5072214;28;19995;-41
2023/04/03 07:55:02;;;;;;;;;;;;;;;;;;5072299;28;19944;-42
2023/04/03 07:57:29;;;;;;;;;;;;;;;;;;5072378;28;19947;-42
2023/04/03 07:59:55;;;;;;;;;;;;;;;;;;5072094;28;19917;-43
2023/04/03 08:02:22;;;;;;;;;;;;;;;;;;5072212;28;19975;-42
2023/04/03 08:04:48;;;;;;;;;;;;;;;;;;5072142;28;19936;-41
2023/04/03 08:07:15;;;;;;;;;;;;;;;;;;5072223;28;19912;-42
2023/04/03 08:09:41;;;;;;;;;;;;;;;;;;5072256;28;19912;-42
2023/04/03 08:12:08;;;;;;;;;;;;;;;;;;5072108;28;19916;-41
2023/04/03 08:14:34;;;;;;;;;;;;;;;;;;5072070;28;20003;-41
2023/04/03 08:17:02;;;;;;;;;;;;;;;;;;5072071;28;19913;-42
2023/04/03 08:19:29;;;;;;;;;;;;;;;;;;5072031;28;19912;-42
2023/04/03 08:21:56;;;;;;;;;;;;;;;;;;5071686;28;20282;-42
2023/04/03 08:24:23;;;;;;;;;;;;;;;;;;5071999;28;19928;-41
2023/04/03 08:26:49;;;;;;;;;;;;;;;;;;5072043;28;19961;-41
2023/04/03 08:29:15;;;;;;;;;;;;;;;;;;5071996;28;19919;-41
2023/04/03 08:31:42;;;;;;;;;;;;;;;;;;5072027;28;19990;-41
2023/04/03 08:34:09;;;;;;;;;;;;;;;;;;5071764;28;19912;-42
2023/04/03 08:36:35;;;;;;;;;;;;;;;;;;5071911;28;19948;-42
2023/04/03 08:39:02;;;;;;;;;;;;;;;;;;5071921;28;19939;-42
2023/04/03 08:41:30;;;;;;;;;;;;;;;;;;5071764;28;20409;-42
2023/04/03 08:43:57;;;;;;;;;;;;;;;;;;5073818;28;19962;-41
2023/04/03 08:46:24;;;;;;;;;;;;;;;;;;5075671;28;19917;-42
2023/04/03 08:48:50;;;;;;;;;;;;;;;;;;5075844;28;19920;-41
2023/04/03 08:51:16;;;;;;;;;;;;;;;;;;5074350;28;20442;-42
2023/04/03 08:53:43;;;;;;;;;;;;;;;;;;5075645;28;20011;-42
2023/04/03 08:56:09;;;;;;;;;;;;;;;;;;5075622;28;19923;-41
2023/04/03 08:58:36;;;;;;;;;;;;;;;;;;5075652;28;19965;-41
2023/04/03 09:01:03;;;;;;;;;;;;;;;;;;5075457;28;19921;-41
2023/04/03 09:03:30;;;;;;;;;;;;;;;;;;5075433;28;19913;-41
2023/04/03 09:05:56;;;;;;;;;;;;;;;;;;5075440;28;19919;-41
2023/04/03 09:08:23;;;;;;;;;;;;;;;;;;5075636;28;19974;-41
2023/04/03 09:10:50;;;;;;;;;;;;;;;;;;5074827;28;19927;-41
2023/04/03 09:13:16;;;;;;;;;;;;;;;;;;5075108;28;20007;-41
2023/04/03 09:15:42;;;;;;;;;;;;;;;;;;5075274;28;19927;-42
2023/04/03 09:18:09;;;;;;;;;;;;;;;;;;5075187;28;19916;-41
2023/04/03 09:20:35;;;;;;;;;;;;;;;;;;5074848;28;20279;-40
2023/04/03 09:23:02;;;;;;;;;;;;;;;;;;5074372;28;19931;-41
2023/04/03 09:25:28;;;;;;;;;;;;;;;;;;5075029;28;19920;-41
2023/04/03 09:27:55;;;;;;;;;;;;;;;;;;5075046;28;19916;-41
2023/04/03 09:30:21;;;;;;;;;;;;;;;;;;5074473;28;19995;-42
2023/04/03 09:32:48;;;;;;;;;;;;;;;;;;5074355;28;19920;-42
2023/04/03 09:35:14;;;;;;;;;;;;;;;;;;5074226;28;20027;-41
2023/04/03 09:37:41;;;;;;;;;;;;;;;;;;5074101;28;19912;-41
2023/04/03 09:40:07;;;;;;;;;;;;;;;;;;5072325;28;19916;-41
2023/04/03 09:42:34;;;;;;;;;;;;;;;;;;5073179;28;19921;-42
2023/04/03 09:45:00;;;;;;;;;;;;;;;;;;5067480;28;19917;-41
2023/04/03 09:47:27;;;;;;;;;;;;;;;;;;5074699;28;19912;-41
2023/04/03 09:49:54;;;;;;;;;;;;;;;;;;5074520;28;20386;-42
2023/04/03 09:52:20;;;;;;;;;;;;;;;;;;5074522;28;19962;-42
2023/04/03 09:54:46;;;;;;;;;;;;;;;;;;5074189;28;19919;-41
2023/04/03 09:57:13;;;;;;;;;;;;;;;;;;5074616;28;20378;-42
2023/04/03 09:59:39;;;;;;;;;;;;;;;;;;5074577;28;20033;-41
2023/04/03 10:02:06;;;;;;;;;;;;;;;;;;5074297;28;19953;-41
2023/04/03 10:04:32;;;;;;;;;;;;;;;;;;5074327;28;19920;-42
2023/04/03 10:06:59;;;;;;;;;;;;;;;;;;5074372;28;19950;-41
2023/04/03 10:09:25;;;;;;;;;;;;;;;;;;5074256;28;19916;-42
2023/04/03 10:11:51;;;;;;;;;;;;;;;;;;5074354;28;19961;-41
2023/04/03 10:14:18;;;;;;;;;;;;;;;;;;5074122;28;19912;-42
2023/04/03 10:16:44;;;;;;;;;;;;;;;;;;5074174;28;19919;-41
2023/04/03 10:19:10;;;;;;;;;;;;;;;;;;5074189;28;19917;-41
2023/04/03 10:21:37;;;;;;;;;;;;;;;;;;5073835;28;19966;-42
2023/04/03 10:24:03;;;;;;;;;;;;;;;;;;5073953;28;19920;-41
2023/04/03 10:26:30;;;;;;;;;;;;;;;;;;5073803;28;20400;-42
2023/04/03 10:28:56;;;;;;;;;;;;;;;;;;5073832;28;20294;-41
2023/04/03 10:31:22;;;;;;;;;;;;;;;;;;5073471;28;20386;-42
2023/04/03 10:33:49;;;;;;;;;;;;;;;;;;5073209;28;19919;-41
2023/04/03 10:36:15;;;;;;;;;;;;;;;;;;5073823;28;19916;-42
2023/04/03 10:38:41;;;;;;;;;;;;;;;;;;5073202;28;20435;-41
2023/04/03 10:41:08;;;;;;;;;;;;;;;;;;5072809;28;20015;-42
2023/04/03 10:43:34;;;;;;;;;;;;;;;;;;5070297;28;19917;-41
2023/04/03 10:46:01;;;;;;;;;;;;;;;;;;5071745;28;19912;-41
2023/04/03 10:48:27;;;;;;;;;;;;;;;;;;5073620;28;20431;-42
2023/04/03 10:50:53;;;;;;;;;;;;;;;;;;5073536;28;19912;-41
2023/04/03 10:53:20;;;;;;;;;;;;;;;;;;5073340;28;19912;-42
2023/04/03 10:55:47;;;;;;;;;;;;;;;;;;5073401;28;19913;-41
2023/04/03 10:58:13;;;;;;;;;;;;;;;;;;5073242;28;19912;-41
2023/04/03 11:00:39;;;;;;;;;;;;;;;;;;5073478;28;20065;-42
2023/04/03 11:03:06;;;;;;;;;;;;;;;;;;5073187;28;19973;-42
2023/04/03 11:05:32;;;;;;;;;;;;;;;;;;5072539;28;19920;-42
2023/04/03 11:07:58;;;;;;;;;;;;;;;;;;5072526;28;20036;-42
2023/04/03 11:10:26;;;;;;;;;;;;;;;;;;5073191;28;20476;-41
2023/04/03 11:12:52;;;;;;;;;;;;;;;;;;5072934;28;19964;-42
2023/04/03 11:15:18;;;;;;;;;;;;;;;;;;5073058;28;19919;-42
2023/04/03 11:17:46;;;;;;;;;;;;;;;;;;5073047;28;19955;-41
2023/04/03 11:20:12;;;;;;;;;;;;;;;;;;5073028;28;19928;-42
2023/04/03 11:22:40;;;;;;;;;;;;;;;;;;5072096;28;19920;-41
2023/04/03 11:25:07;;;;;;;;;;;;;;;;;;5072708;28;19920;-41
2023/04/03 11:27:33;;;;;;;;;;;;;;;;;;5072646;28;20011;-41
2023/04/03 11:30:00;;;;;;;;;;;;;;;;;;5072759;28;19916;-42
2023/04/03 11:32:27;;;;;;;;;;;;;;;;;;5072538;28;19916;-41
2023/04/03 11:34:54;;;;;;;;;;;;;;;;;;5072719;28;20397;-41
2023/04/03 11:37:21;;;;;;;;;;;;;;;;;;5072147;28;19967;-42
2023/04/03 11:39:47;;;;;;;;;;;;;;;;;;5072525;28;19912;-42
2023/04/03 11:42:14;;;;;;;;;;;;;;;;;;5072164;28;19924;-43
2023/04/03 11:44:41;;;;;;;;;;;;;;;;;;5072413;28;20427;-42
2023/04/03 11:47:07;;;;;;;;;;;;;;;;;;5072040;28;19921;-42
2023/04/03 11:49:34;;;;;;;;;;;;;;;;;;5072255;28;19912;-42
2023/04/03 11:52:00;;;;;;;;;;;;;;;;;;5072487;28;19924;-42
2023/04/03 11:54:27;;;;;;;;;;;;;;;;;;5072396;28;19999;-42
2023/04/03 11:56:53;;;;;;;;;;;;;;;;;;5070926;28;19989;-41
2023/04/03 11:59:20;;;;;;;;;;;;;;;;;;5071169;28;20396;-42
2023/04/03 12:01:46;;;;;;;;;;;;;;;;;;5072195;28;19979;-42
2023/04/03 12:04:15;;;;;;;;;;;;;;;;;;5072230;28;19967;-41
2023/04/03 12:06:41;;;;;;;;;;;;;;;;;;5072138;28;20377;-42
2023/04/03 12:09:08;;;;;;;;;;;;;;;;;;5071795;28;19913;-43
2023/04/03 12:11:34;;;;;;;;;;;;;;;;;;5071574;28;19916;-42
2023/04/03 12:14:02;;;;;;;;;;;;;;;;;;5071302;28;19912;-42
2023/04/03 12:16:29;;;;;;;;;;;;;;;;;;5071091;28;19920;-42
2023/04/03 12:19:04;;;;;;;;;;;;;;;;;;5071048;28;19966;-42
2023/04/03 12:21:31;;;;;;;;;;;;;;;;;;5069071;28;19929;-42
2023/04/03 12:23:57;;;;;;;;;;;;;;;;;;5071727;28;19912;-42
2023/04/03 12:26:25;;;;;;;;;;;;;;;;;;5072126;28;19917;-42
2023/04/03 12:28:52;;;;;;;;;;;;;;;;;;5071930;28;19919;-42
2023/04/03 12:31:19;;;;;;;;;;;;;;;;;;5072000;28;19920;-42
2023/04/03 12:33:45;;;;;;;;;;;;;;;;;;5071877;28;20007;-42
2023/04/03 12:36:12;;;;;;;;;;;;;;;;;;5072089;28;20393;-44
2023/04/03 12:38:38;;;;;;;;;;;;;;;;;;5072083;28;19951;-42
2023/04/03 12:41:05;;;;;;;;;;;;;;;;;;5071809;28;20322;-42
2023/04/03 12:43:31;;;;;;;;;;;;;;;;;;5071841;28;20313;-42
2023/04/03 12:45:59;;;;;;;;;;;;;;;;;;5071872;28;19913;-42
2023/04/03 12:48:26;;;;;;;;;;;;;;;;;;5071795;28;19966;-42
2023/04/03 12:50:52;;;;;;;;;;;;;;;;;;5071782;28;19927;-42
2023/04/03 12:53:18;;;;;;;;;;;;;;;;;;5071770;28;19913;-42
2023/04/03 12:55:45;;;;;;;;;;;;;;;;;;5071843;28;19917;-43
2023/04/03 12:58:11;;;;;;;;;;;;;;;;;;5071785;28;20462;-42
2023/04/03 13:00:39;;;;;;;;;;;;;;;;;;5071642;28;19912;-42
2023/04/03 13:03:05;;;;;;;;;;;;;;;;;;5071568;28;19971;-43
2023/04/03 13:05:32;;;;;;;;;;;;;;;;;;5071707;28;19913;-43
2023/04/03 13:07:58;;;;;;;;;;;;;;;;;;5071620;28;20058;-42
2023/04/03 13:10:25;;;;;;;;;;;;;;;;;;5071689;28;19919;-42
2023/04/03 13:12:51;;;;;;;;;;;;;;;;;;5071441;28;19916;-42
2023/04/03 13:15:18;;;;;;;;;;;;;;;;;;5071714;28;19913;-42
2023/04/03 13:17:44;;;;;;;;;;;;;;;;;;5071624;28;19912;-43
2023/04/03 13:20:10;;;;;;;;;;;;;;;;;;5071471;28;19917;-43
2023/04/03 13:22:41;;;;;;;;;;;;;;;;;;5071231;28;19970;-42
2023/04/03 13:25:07;;;;;;;;;;;;;;;;;;5071441;28;19916;-43
2023/04/03 13:27:34;;;;;;;;;;;;;;;;;;5071560;28;19919;-42
2023/04/03 13:30:01;;;;;;;;;;;;;;;;;;5073526;28;19917;-42
2023/04/03 13:32:27;;;;;;;;;;;;;;;;;;5075053;28;19912;-42
2023/04/03 13:34:53;;;;;;;;;;;;;;;;;;5075050;28;19913;-43
2023/04/03 13:37:20;;;;;;;;;;;;;;;;;;5074932;28;19916;-42
2023/04/03 13:39:46;;;;;;;;;;;;;;;;;;5074998;28;19920;-43
2023/04/03 13:42:12;;;;;;;;;;;;;;;;;;5074803;28;19959;-42
2023/04/03 13:44:41;;;;;;;;;;;;;;;;;;5074916;28;19940;-42
2023/04/03 13:47:08;;;;;;;;;;;;;;;;;;5074834;28;19916;-44
2023/04/03 13:49:35;;;;;;;;;;;;;;;;;;5074813;28;19961;-44
2023/04/03 13:52:01;;;;;;;;;;;;;;;;;;5074668;28;19916;-42
2023/04/03 13:54:27;;;;;;;;;;;;;;;;;;5074677;28;19954;-43
2023/04/03 13:56:54;;;;;;;;;;;;;;;;;;5074634;28;19928;-42
2023/04/03 13:59:21;;;;;;;;;;;;;;;;;;5074659;28;19935;-42
2023/04/03 14:01:48;;;;;;;;;;;;;;;;;;5074518;28;19927;-42
2023/04/03 14:04:15;;;;;;;;;;;;;;;;;;5074485;28;19995;-42
2023/04/03 14:06:41;;;;;;;;;;;;;;;;;;5074713;28;19924;-42
2023/04/03 14:09:08;;;;;;;;;;;;;;;;;;5074482;28;19924;-42
2023/04/03 14:11:34;;;;;;;;;;;;;;;;;;5074404;28;19920;-42
2023/04/03 14:14:00;;;;;;;;;;;;;;;;;;5074309;28;19961;-43
2023/04/03 14:16:27;;;;;;;;;;;;;;;;;;5074353;28;19916;-42
2023/04/03 14:18:53;;;;;;;;;;;;;;;;;;5074246;28;19912;-42
2023/04/03 14:21:21;;;;;;;;;;;;;;;;;;5074001;28;19920;-42
2023/04/03 14:23:47;;;;;;;;;;;;;;;;;;5073928;28;20314;-42
2023/04/03 14:26:13;;;;;;;;;;;;;;;;;;5074188;28;19935;-42
2023/04/03 14:28:40;;;;;;;;;;;;;;;;;;5074120;28;20286;-43
2023/04/03 14:31:06;;;;;;;;;;;;;;;;;;5074000;28;19984;-42
2023/04/03 14:33:35;;;;;;;;;;;;;;;;;;5073885;28;19921;-42
2023/04/03 14:36:02;;;;;;;;;;;;;;;;;;5073832;28;19916;-43
2023/04/03 14:38:28;;;;;;;;;;;;;;;;;;5073807;28;19919;-42
2023/04/03 14:40:55;;;;;;;;;;;;;;;;;;5073989;28;20370;-42
2023/04/03 14:43:21;;;;;;;;;;;;;;;;;;5073612;28;19951;-43
2023/04/03 14:45:48;;;;;;;;;;;;;;;;;;5073709;28;19920;-42
2023/04/03 14:48:14;;;;;;;;;;;;;;;;;;5073708;28;19913;-41
2023/04/03 14:50:41;;;;;;;;;;;;;;;;;;5073657;28;19920;-42
2023/04/03 14:53:07;;;;;;;;;;;;;;;;;;5073509;28;20011;-41
2023/04/03 14:55:35;;;;;;;;;;;;;;;;;;5073542;28;19912;-42
2023/04/03 14:58:01;;;;;;;;;;;;;;;;;;5073308;28;20286;-42
2023/04/03 15:00:27;;;;;;;;;;;;;;;;;;5073418;28;19962;-42
2023/04/03 15:02:54;;;;;;;;;;;;;;;;;;5073203;28;19926;-42
2023/04/03 15:05:20;;;;;;;;;;;;;;;;;;5073276;28;19917;-43
2023/04/03 15:07:46;;;;;;;;;;;;;;;;;;5073129;28;20386;-42
2023/04/03 15:10:13;;;;;;;;;;;;;;;;;;5073203;28;20397;-42
2023/04/03 15:12:40;;;;;;;;;;;;;;;;;;5073120;28;19913;-41
2023/04/03 15:15:06;;;;;;;;;;;;;;;;;;5072995;28;19916;-43
2023/04/03 15:17:32;;;;;;;;;;;;;;;;;;5073050;28;19920;-42
2023/04/03 15:19:59;;;;;;;;;;;;;;;;;;5072919;28;19928;-42
2023/04/03 15:22:25;;;;;;;;;;;;;;;;;;5072541;28;19928;-43
2023/04/03 15:24:52;;;;;;;;;;;;;;;;;;5072950;28;19913;-43
2023/04/03 15:27:18;;;;;;;;;;;;;;;;;;5072940;28;20413;-42
2023/04/03 15:29:44;;;;;;;;;;;;;;;;;;5072923;28;19938;-43
2023/04/03 15:32:11;;;;;;;;;;;;;;;;;;5072730;28;20372;-43
2023/04/03 15:34:37;;;;;;;;;;;;;;;;;;5072720;28;19916;-43
2023/04/03 15:37:04;;;;;;;;;;;;;;;;;;5072774;28;19912;-42
2023/04/03 15:39:30;;;;;;;;;;;;;;;;;;5072675;28;19914;-42
2023/04/03 15:41:59;;;;;;;;;;;;;;;;;;5072486;28;20340;-42
2023/04/03 15:44:25;;;;;;;;;;;;;;;;;;5072501;28;19955;-42
2023/04/03 15:46:52;;;;;;;;;;;;;;;;;;5072599;28;19917;-42
2023/04/03 15:49:18;;;;;;;;;;;;;;;;;;5072564;28;19936;-44
2023/04/03 15:51:45;;;;;;;;;;;;;;;;;;5072296;28;19923;-42
2023/04/03 15:54:11;;;;;;;;;;;;;;;;;;5072496;28;19924;-42
2023/04/03 15:56:37;;;;;;;;;;;;;;;;;;5072490;28;19947;-42
2023/04/03 15:59:04;;;;;;;;;;;;;;;;;;5072313;28;19920;-42
2023/04/03 16:01:30;;;;;;;;;;;;;;;;;;5072342;28;19951;-43
2023/04/03 16:03:57;;;;;;;;;;;;;;;;;;5072336;28;19912;-43
2023/04/03 16:06:23;;;;;;;;;;;;;;;;;;5072349;28;19921;-43
2023/04/03 16:08:49;;;;;;;;;;;;;;;;;;5072395;28;20418;-42
2023/04/03 16:11:16;;;;;;;;;;;;;;;;;;5072269;28;20309;-43
2023/04/03 16:13:42;;;;;;;;;;;;;;;;;;5072134;28;19983;-44
2023/04/03 16:16:09;;;;;;;;;;;;;;;;;;5072262;28;19936;-43
2023/04/03 16:18:35;;;;;;;;;;;;;;;;;;5072260;28;19997;-42
2023/04/03 16:21:01;;;;;;;;;;;;;;;;;;5072031;28;20385;-42
2023/04/03 16:23:28;;;;;;;;;;;;;;;;;;5071869;28;19928;-42
2023/04/03 16:25:54;;;;;;;;;;;;;;;;;;5072144;28;20654;-42
2023/04/03 16:28:20;;;;;;;;;;;;;;;;;;5072166;28;19970;-42
2023/04/03 16:30:47;;;;;;;;;;;;;;;;;;5072112;28;19912;-42
2023/04/03 16:33:14;;;;;;;;;;;;;;;;;;5071993;28;19916;-42
2023/04/03 16:35:44;;;;;;;;;;;;;;;;;;5072004;28;19970;-43
2023/04/03 16:38:10;;;;;;;;;;;;;;;;;;5071950;28;19920;-43
2023/04/03 16:40:37;;;;;;;;;;;;;;;;;;5071963;28;19912;-41